Wetterstation Vordersexau
Wetterdaten: Woche 08.05.17 - 14.05.17 (KW19)
Datum Zeit Temp. A. Feuchte A. Luftdruck Regen Wind Richtung Taupunkt Windchill Windben
08.05.2017 00:00 10,1 C 74 % 1014,7 hPa 3,6 l/m 0,0 km/h SW 5,7 C 10,1 C 0,0 km/h
08.05.2017 01:00 9,8 C 73 % 1014,2 hPa 0,0 l/m 0,0 km/h W 5,2 C 9,8 C 0,0 km/h
08.05.2017 02:00 9,8 C 71 % 1014,3 hPa 0,0 l/m 0,0 km/h W 4,8 C 9,8 C 0,0 km/h
08.05.2017 03:00 9,8 C 71 % 1014,4 hPa 0,5 l/m 0,0 km/h W 4,8 C 9,8 C 0,0 km/h
08.05.2017 04:00 9,8 C 71 % 1014,4 hPa 0,0 l/m 0,0 km/h W 4,8 C 9,8 C 0,0 km/h
08.05.2017 05:00 9,9 C 71 % 1014,5 hPa 0,0 l/m 0,0 km/h O 4,9 C 9,9 C 0,0 km/h
08.05.2017 06:00 9,9 C 71 % 1014,7 hPa 0,0 l/m 0,0 km/h W 4,9 C 9,9 C 0,0 km/h
08.05.2017 07:00 10,1 C 71 % 1015,2 hPa 0,0 l/m 0,0 km/h W 5,1 C 10,1 C 0,0 km/h
08.05.2017 08:00 9,4 C 73 % 1015,6 hPa 0,0 l/m 0,0 km/h W 4,8 C 9,4 C 0,0 km/h
08.05.2017 09:00 9,6 C 76 % 1015,9 hPa 0,0 l/m 0,0 km/h W 5,6 C 9,6 C 0,0 km/h
08.05.2017 10:00 9,6 C 77 % 1016,2 hPa 0,5 l/m 0,0 km/h S-SO 5,8 C 9,6 C 0,0 km/h
08.05.2017 11:00 10,6 C 76 % 1016,4 hPa 0,0 l/m 0,0 km/h SO 6,5 C 10,6 C 0,0 km/h
08.05.2017 12:00 12,3 C 83 % 1016,4 hPa 0,0 l/m 0,0 km/h SO 9,5 C 12,3 C 0,0 km/h
08.05.2017 13:00 11,3 C 85 % 1016,4 hPa 0,0 l/m 0,0 km/h SW 8,9 C 11,3 C 0,0 km/h
08.05.2017 14:00 10,8 C 85 % 1016,3 hPa 0,0 l/m 0,0 km/h S 8,4 C 10,8 C 0,0 km/h
08.05.2017 15:00 11,6 C 85 % 1016,1 hPa 0,0 l/m 0,0 km/h N 9,2 C 11,6 C 0,0 km/h
08.05.2017 16:00 10,8 C 86 % 1016,2 hPa 0,0 l/m 4,5 km/h N-NW 8,6 C 10,8 C 2,5 km/h
08.05.2017 17:00 9,9 C 85 % 1016,6 hPa 0,0 l/m 3,2 km/h N-NO 7,5 C 9,9 C 1,8 km/h
08.05.2017 18:00 9,6 C 85 % 1016,6 hPa 0,0 l/m 0,0 km/h N 7,2 C 9,6 C 0,0 km/h
08.05.2017 19:00 9,4 C 85 % 1016,8 hPa 0,0 l/m 0,0 km/h N 7,0 C 9,4 C 0,0 km/h
08.05.2017 20:00 8,8 C 86 % 1017,1 hPa 0,0 l/m 0,0 km/h N 6,6 C 8,8 C 0,0 km/h
08.05.2017 21:00 8,4 C 86 % 1017,7 hPa 0,0 l/m 0,0 km/h N-NW 6,2 C 8,4 C 0,0 km/h
08.05.2017 22:00 8,2 C 85 % 1017,8 hPa 0,0 l/m 0,0 km/h N-NW 5,8 C 8,2 C 0,0 km/h
08.05.2017 23:00 8,1 C 86 % 1017,9 hPa 0,0 l/m 0,0 km/h N-NW 5,9 C 8,1 C 0,0 km/h
09.05.2017 00:00 7,8 C 86 % 1017,6 hPa 0,0 l/m 0,0 km/h N-NW 5,6 C 7,8 C 0,0 km/h
09.05.2017 01:00 7,4 C 85 % 1017,3 hPa 0,0 l/m 0,0 km/h N-NW 5,0 C 7,4 C 0,0 km/h
09.05.2017 02:00 7,0 C 85 % 1017,2 hPa 0,0 l/m 0,0 km/h N-NW 4,7 C 7,0 C 0,0 km/h
09.05.2017 03:00 6,8 C 85 % 1016,9 hPa 0,0 l/m 0,0 km/h N-NW 4,5 C 6,8 C 0,0 km/h
09.05.2017 04:00 6,6 C 84 % 1016,6 hPa 0,0 l/m 0,0 km/h N-NW 4,1 C 6,6 C 0,0 km/h
09.05.2017 05:00 6,5 C 83 % 1016,3 hPa 0,0 l/m 0,0 km/h N-NW 3,8 C 6,5 C 0,0 km/h
09.05.2017 06:00 6,4 C 83 % 1016,2 hPa 0,0 l/m 0,0 km/h N 3,7 C 6,4 C 0,0 km/h
09.05.2017 07:00 10,9 C 86 % 1016,2 hPa 0,0 l/m 1,3 km/h N-NO 8,7 C 10,9 C 0,7 km/h
09.05.2017 08:00 11,1 C 83 % 1016,4 hPa 0,0 l/m 0,0 km/h N 8,3 C 11,1 C 0,0 km/h
09.05.2017 09:00 12,6 C 77 % 1015,8 hPa 0,0 l/m 3,2 km/h N-NO 8,7 C 12,6 C 1,8 km/h
09.05.2017 10:00 13,6 C 68 % 1015,7 hPa 0,0 l/m 9,1 km/h N 7,8 C 12,0 C 5,0 km/h
09.05.2017 11:00 13,6 C 65 % 1015,4 hPa 0,0 l/m 0,0 km/h N 7,1 C 13,6 C 0,0 km/h
09.05.2017 12:00 14,6 C 61 % 1015,1 hPa 0,0 l/m 5,2 km/h N-NO 7,2 C 14,6 C 2,9 km/h
09.05.2017 13:00 14,8 C 63 % 1014,5 hPa 0,0 l/m 0,0 km/h O-SO 7,8 C 14,8 C 0,0 km/h
09.05.2017 14:00 17,6 C 56 % 1014,0 hPa 0,0 l/m 0,6 km/h N 8,7 C 17,6 C 0,4 km/h
09.05.2017 15:00 18,2 C 49 % 1013,3 hPa 0,0 l/m 1,3 km/h N-NO 7,3 C 18,2 C 0,7 km/h
09.05.2017 16:00 17,3 C 49 % 1012,8 hPa 0,0 l/m 0,6 km/h N 6,5 C 17,3 C 0,4 km/h
09.05.2017 17:00 19,3 C 43 % 1012,3 hPa 0,0 l/m 0,0 km/h N-NW 6,4 C 19,3 C 0,0 km/h
09.05.2017 18:00 20,3 C 42 % 1011,7 hPa 0,0 l/m 0,0 km/h N-NO 7,0 C 20,3 C 0,0 km/h
09.05.2017 19:00 15,4 C 49 % 1011,5 hPa 0,0 l/m 0,0 km/h N 4,7 C 15,4 C 0,0 km/h
09.05.2017 20:00 11,6 C 59 % 1011,3 hPa 0,0 l/m 0,0 km/h N 3,9 C 11,6 C 0,0 km/h
09.05.2017 21:00 9,1 C 67 % 1011,4 hPa 0,0 l/m 0,0 km/h N-NO 3,3 C 9,1 C 0,0 km/h
09.05.2017 22:00 5,3 C 76 % 1011,5 hPa 0,0 l/m 0,0 km/h N-NO 1,4 C 5,3 C 0,0 km/h
09.05.2017 23:00 4,1 C 79 % 1010,9 hPa 0,0 l/m 0,0 km/h O 0,8 C 4,1 C 0,0 km/h
10.05.2017 00:00 4,3 C 82 % 1010,6 hPa 0,0 l/m 0,0 km/h O 1,5 C 4,3 C 0,0 km/h
10.05.2017 01:00 5,1 C 84 % 1010,3 hPa 0,0 l/m 4,5 km/h O-SO 2,6 C 5,1 C 2,5 km/h
10.05.2017 02:00 4,8 C 84 % 1009,3 hPa 0,0 l/m 0,0 km/h O-SO 2,3 C 4,8 C 0,0 km/h
10.05.2017 03:00 4,4 C 85 % 1009,0 hPa 0,0 l/m 0,0 km/h O-SO 2,1 C 4,4 C 0,0 km/h
10.05.2017 04:00 2,9 C 85 % 1008,4 hPa 0,0 l/m 0,0 km/h O-SO 0,6 C 2,9 C 0,0 km/h
10.05.2017 05:00 1,9 C 86 % 1008,3 hPa 0,0 l/m 0,0 km/h O-SO -0,2 C 1,9 C 0,0 km/h
10.05.2017 06:00 1,9 C 86 % 1008,4 hPa 0,0 l/m 0,0 km/h O-SO -0,2 C 1,9 C 0,0 km/h
10.05.2017 07:00 11,6 C 83 % 1008,3 hPa 0,0 l/m 0,0 km/h O 8,8 C 11,6 C 0,0 km/h
10.05.2017 08:00 17,4 C 57 % 1007,9 hPa 0,0 l/m 0,0 km/h S 8,8 C 17,4 C 0,0 km/h
10.05.2017 09:00 18,8 C 52 % 1007,4 hPa 0,0 l/m 0,0 km/h W-NW 8,7 C 18,8 C 0,0 km/h
10.05.2017 10:00 19,2 C 48 % 1007,0 hPa 0,0 l/m 0,0 km/h W-NW 7,9 C 19,2 C 0,0 km/h
10.05.2017 11:00 19,2 C 46 % 1006,4 hPa 0,0 l/m 0,0 km/h W-SW 7,3 C 19,2 C 0,0 km/h
10.05.2017 12:00 20,3 C 46 % 1005,9 hPa 0,0 l/m 0,0 km/h W 8,3 C 20,3 C 0,0 km/h
10.05.2017 13:00 21,9 C 44 % 1005,4 hPa 0,0 l/m 0,0 km/h W 9,1 C 21,9 C 0,0 km/h
10.05.2017 14:00 23,6 C 44 % 1004,5 hPa 0,0 l/m 0,0 km/h W 10,6 C 23,6 C 0,0 km/h
10.05.2017 15:00 24,0 C 42 % 1003,5 hPa 0,0 l/m 0,0 km/h W-SW 10,3 C 24,0 C 0,0 km/h
10.05.2017 16:00 27,6 C 34 % 1002,7 hPa 0,0 l/m 0,0 km/h W-SW 10,3 C 27,6 C 0,0 km/h
10.05.2017 17:00 33,1 C 21 % 1002,2 hPa 0,0 l/m 0,0 km/h NW 7,8 C 33,1 C 0,0 km/h
10.05.2017 18:00 31,7 C 24 % 1001,7 hPa 0,0 l/m 0,0 km/h W-NW 8,6 C 31,7 C 0,0 km/h
10.05.2017 19:00 21,8 C 35 % 1001,3 hPa 0,0 l/m 0,0 km/h W-NW 5,7 C 21,8 C 0,0 km/h
10.05.2017 20:00 14,9 C 55 % 1001,6 hPa 0,0 l/m 0,0 km/h W-NW 5,9 C 14,9 C 0,0 km/h
10.05.2017 21:00 12,9 C 61 % 1001,9 hPa 0,0 l/m 0,0 km/h O-SO 5,6 C 12,9 C 0,0 km/h
10.05.2017 22:00 11,8 C 68 % 1002,2 hPa 0,0 l/m 0,0 km/h O-SO 6,1 C 11,8 C 0,0 km/h
10.05.2017 23:00 11,5 C 71 % 1002,2 hPa 0,0 l/m 0,0 km/h O-SO 6,4 C 11,5 C 0,0 km/h
11.05.2017 00:00 11,1 C 73 % 1002,3 hPa 0,0 l/m 0,0 km/h O-SO 6,4 C 11,1 C 0,0 km/h
11.05.2017 01:00 10,7 C 74 % 1002,2 hPa 0,0 l/m 0,0 km/h O-SO 6,3 C 10,7 C 0,0 km/h
11.05.2017 02:00 10,5 C 75 % 1001,9 hPa 0,0 l/m 0,0 km/h O-SO 6,3 C 10,5 C 0,0 km/h
11.05.2017 03:00 10,1 C 78 % 1001,4 hPa 0,0 l/m 0,0 km/h O-SO 6,4 C 10,1 C 0,0 km/h
11.05.2017 04:00 10,1 C 79 % 1000,9 hPa 0,0 l/m 0,0 km/h O-SO 6,6 C 10,1 C 0,0 km/h
11.05.2017 05:00 9,9 C 80 % 1000,3 hPa 0,0 l/m 0,0 km/h SO 6,6 C 9,9 C 0,0 km/h
11.05.2017 06:00 11,1 C 79 % 999,8 hPa 0,0 l/m 1,3 km/h SO 7,6 C 11,1 C 0,7 km/h
11.05.2017 07:00 12,1 C 78 % 999,4 hPa 0,0 l/m 8,4 km/h SO 8,4 C 10,8 C 4,7 km/h
11.05.2017 08:00 14,8 C 75 % 999,3 hPa 0,0 l/m 0,0 km/h W 10,4 C 14,8 C 0,0 km/h
11.05.2017 09:00 21,6 C 62 % 999,1 hPa 0,0 l/m 0,0 km/h W 14,0 C 21,6 C 0,0 km/h
11.05.2017 10:00 21,9 C 54 % 998,1 hPa 0,0 l/m 0,0 km/h W 12,2 C 21,9 C 0,0 km/h
11.05.2017 11:00 23,8 C 53 % 997,9 hPa 0,0 l/m 0,0 km/h W 13,6 C 23,8 C 0,0 km/h
11.05.2017 12:00 22,1 C 56 % 997,6 hPa 0,0 l/m 1,9 km/h W-NW 12,9 C 22,1 C 1,1 km/h
11.05.2017 13:00 21,8 C 54 % 997,5 hPa 0,0 l/m 0,0 km/h W 12,1 C 21,8 C 0,0 km/h
11.05.2017 14:00 21,1 C 60 % 997,6 hPa 0,0 l/m 0,0 km/h N-NO 13,0 C 21,1 C 0,0 km/h
11.05.2017 15:00 22,2 C 56 % 996,9 hPa 0,0 l/m 14,9 km/h SO 13,0 C 19,9 C 8,3 km/h
11.05.2017 16:00 20,9 C 60 % 996,9 hPa 0,0 l/m 0,0 km/h O 12,8 C 20,9 C 0,0 km/h
11.05.2017 17:00 18,5 C 67 % 996,0 hPa 0,0 l/m 0,0 km/h O 12,3 C 18,5 C 0,0 km/h
11.05.2017 18:00 18,3 C 69 % 995,6 hPa 0,0 l/m 0,0 km/h O-SO 12,5 C 18,3 C 0,0 km/h
11.05.2017 19:00 16,5 C 74 % 995,4 hPa 0,0 l/m 0,0 km/h O-SO 11,8 C 16,5 C 0,0 km/h
11.05.2017 20:00 15,1 C 78 % 996,1 hPa 0,0 l/m 0,0 km/h O-SO 11,3 C 15,1 C 0,0 km/h
11.05.2017 21:00 13,9 C 80 % 997,1 hPa 0,0 l/m 0,0 km/h SW 10,5 C 13,9 C 0,0 km/h
11.05.2017 22:00 14,1 C 81 % 998,4 hPa 0,0 l/m 3,9 km/h S 10,9 C 14,1 C 2,2 km/h
11.05.2017 23:00 12,9 C 83 % 998,7 hPa 0,0 l/m 0,0 km/h S 10,1 C 12,9 C 0,0 km/h
12.05.2017 00:00 11,6 C 84 % 999,5 hPa 0,0 l/m 0,0 km/h S 9,0 C 11,6 C 0,0 km/h
12.05.2017 01:00 11,9 C 84 % 999,6 hPa 0,0 l/m 0,0 km/h S 9,3 C 11,9 C 0,0 km/h
12.05.2017 02:00 12,3 C 84 % 999,9 hPa 0,0 l/m 0,0 km/h S-SO 9,7 C 12,3 C 0,0 km/h
12.05.2017 03:00 13,2 C 84 % 999,9 hPa 0,0 l/m 0,0 km/h N-NO 10,6 C 13,2 C 0,0 km/h
12.05.2017 04:00 12,3 C 84 % 1000,0 hPa 0,0 l/m 0,0 km/h N-NO 9,7 C 12,3 C 0,0 km/h
12.05.2017 05:00 11,8 C 84 % 1000,4 hPa 0,0 l/m 0,0 km/h NO 9,2 C 11,8 C 0,0 km/h
12.05.2017 06:00 11,9 C 84 % 1000,9 hPa 0,0 l/m 0,0 km/h NO 9,3 C 11,9 C 0,0 km/h
12.05.2017 07:00 15,3 C 82 % 1001,6 hPa 0,0 l/m 0,0 km/h NO 12,2 C 15,3 C 0,0 km/h
12.05.2017 08:00 16,4 C 78 % 1001,6 hPa 0,0 l/m 0,0 km/h W-SW 12,6 C 16,4 C 0,0 km/h
12.05.2017 09:00 18,6 C 66 % 1001,9 hPa 0,0 l/m 3,9 km/h W 12,1 C 18,6 C 2,2 km/h
12.05.2017 10:00 22,6 C 57 % 1002,0 hPa 0,0 l/m 2,6 km/h W 13,6 C 22,6 C 1,4 km/h
12.05.2017 11:00 22,9 C 53 % 1002,0 hPa 0,0 l/m 1,9 km/h W-SW 12,8 C 22,9 C 1,1 km/h
12.05.2017 12:00 24,7 C 51 % 1001,9 hPa 0,0 l/m 0,0 km/h SW 13,9 C 24,7 C 0,0 km/h
12.05.2017 13:00 25,4 C 48 % 1001,9 hPa 0,0 l/m 12,3 km/h W 13,6 C 24,2 C 6,8 km/h
12.05.2017 14:00 18,3 C 57 % 1003,3 hPa 0,0 l/m 23,3 km/h SO 9,6 C 13,4 C 13,0 km/h
12.05.2017 15:00 17,4 C 67 % 1003,3 hPa 0,0 l/m 11,0 km/h SO 11,2 C 15,4 C 6,1 km/h
12.05.2017 16:00 19,8 C 61 % 1002,6 hPa 0,0 l/m 0,0 km/h S-SO 12,1 C 19,8 C 0,0 km/h
12.05.2017 17:00 25,6 C 47 % 1002,3 hPa 0,0 l/m 0,0 km/h W 13,4 C 25,6 C 0,0 km/h
12.05.2017 18:00 25,8 C 42 % 1002,3 hPa 0,0 l/m 0,0 km/h W 11,9 C 25,8 C 0,0 km/h
12.05.2017 19:00 18,8 C 58 % 1003,1 hPa 0,0 l/m 7,8 km/h SW 10,4 C 18,2 C 4,3 km/h
12.05.2017 20:00 16,1 C 66 % 1003,4 hPa 0,0 l/m 0,0 km/h S 9,7 C 16,1 C 0,0 km/h
12.05.2017 21:00 12,8 C 74 % 1004,4 hPa 0,0 l/m 0,0 km/h S 8,3 C 12,8 C 0,0 km/h
12.05.2017 22:00 11,4 C 79 % 1005,1 hPa 0,0 l/m 0,0 km/h S 7,9 C 11,4 C 0,0 km/h
12.05.2017 23:00 11,3 C 81 % 1006,1 hPa 0,0 l/m 0,0 km/h S 8,2 C 11,3 C 0,0 km/h
13.05.2017 00:00 10,5 C 82 % 1006,5 hPa 0,0 l/m 0,0 km/h S-SO 7,6 C 10,5 C 0,0 km/h
13.05.2017 01:00 9,8 C 84 % 1006,9 hPa 0,0 l/m 0,0 km/h S-SO 7,2 C 9,8 C 0,0 km/h
13.05.2017 02:00 11,2 C 84 % 1006,9 hPa 0,0 l/m 0,0 km/h S-SO 8,6 C 11,2 C 0,0 km/h
13.05.2017 03:00 11,4 C 84 % 1007,3 hPa 0,0 l/m 0,0 km/h S-SO 8,8 C 11,4 C 0,0 km/h
13.05.2017 04:00 11,7 C 84 % 1007,5 hPa 0,0 l/m 0,0 km/h S-SO 9,1 C 11,7 C 0,0 km/h
13.05.2017 05:00 12,2 C 84 % 1008,0 hPa 0,0 l/m 0,0 km/h S-SO 9,6 C 12,2 C 0,0 km/h
13.05.2017 06:00 12,0 C 84 % 1008,7 hPa 0,0 l/m 0,0 km/h S-SO 9,4 C 12,0 C 0,0 km/h
13.05.2017 07:00 15,6 C 84 % 1009,1 hPa 0,0 l/m 0,0 km/h SW 12,9 C 15,6 C 0,0 km/h
13.05.2017 08:00 18,8 C 67 % 1009,7 hPa 0,0 l/m 16,8 km/h W-SW 12,5 C 15,4 C 9,4 km/h
13.05.2017 09:00 19,3 C 63 % 1010,4 hPa 0,0 l/m 2,6 km/h S-SO 12,1 C 19,3 C 1,4 km/h
13.05.2017 10:00 22,3 C 59 % 1010,7 hPa 0,0 l/m 25,9 km/h W-SW 13,9 C 18,4 C 14,4 km/h
13.05.2017 11:00 23,2 C 54 % 1010,7 hPa 0,0 l/m 1,3 km/h W 13,4 C 23,2 C 0,7 km/h
13.05.2017 12:00 24,3 C 51 % 1010,6 hPa 0,0 l/m 5,2 km/h SW 13,5 C 24,3 C 2,9 km/h
13.05.2017 13:00 24,9 C 48 % 1010,2 hPa 0,0 l/m 4,5 km/h N 13,1 C 24,9 C 2,5 km/h
13.05.2017 14:00 24,4 C 46 % 1010,0 hPa 0,0 l/m 0,0 km/h N-NO 12,0 C 24,4 C 0,0 km/h
13.05.2017 15:00 24,9 C 47 % 1010,0 hPa 0,0 l/m 1,9 km/h W 12,8 C 24,9 C 1,1 km/h
13.05.2017 16:00 26,6 C 44 % 1010,1 hPa 0,0 l/m 18,1 km/h N 13,3 C 24,9 C 10,1 km/h
13.05.2017 17:00 22,4 C 51 % 1010,7 hPa 0,0 l/m 1,3 km/h SW 11,8 C 22,4 C 0,7 km/h
13.05.2017 18:00 18,6 C 60 % 1012,4 hPa 0,0 l/m 14,9 km/h W 10,7 C 15,6 C 8,3 km/h
13.05.2017 19:00 16,9 C 68 % 1013,7 hPa 0,0 l/m 1,3 km/h W 11,0 C 16,9 C 0,7 km/h
13.05.2017 20:00 13,9 C 73 % 1013,9 hPa 0,0 l/m 0,0 km/h W-NW 9,1 C 13,9 C 0,0 km/h
13.05.2017 21:00 12,6 C 80 % 1014,2 hPa 0,0 l/m 0,0 km/h W-NW 9,2 C 12,6 C 0,0 km/h
13.05.2017 22:00 11,9 C 82 % 1015,0 hPa 0,0 l/m 0,0 km/h W-NW 8,9 C 11,9 C 0,0 km/h
13.05.2017 23:00 12,3 C 84 % 1015,6 hPa 0,0 l/m 0,0 km/h W-NW 9,7 C 12,3 C 0,0 km/h
14.05.2017 00:00 12,4 C 84 % 1016,0 hPa 0,0 l/m 0,0 km/h W-NW 9,8 C 12,4 C 0,0 km/h
14.05.2017 01:00 12,7 C 84 % 1016,3 hPa 0,0 l/m 0,0 km/h W-NW 10,1 C 12,7 C 0,0 km/h
14.05.2017 02:00 12,8 C 84 % 1016,4 hPa 0,0 l/m 0,0 km/h W-NW 10,2 C 12,8 C 0,0 km/h
14.05.2017 03:00 11,9 C 84 % 1016,7 hPa 0,0 l/m 0,0 km/h W-NW 9,3 C 11,9 C 0,0 km/h
14.05.2017 04:00 12,1 C 84 % 1017,2 hPa 0,0 l/m 0,0 km/h W-NW 9,5 C 12,1 C 0,0 km/h
14.05.2017 05:00 11,9 C 84 % 1017,3 hPa 0,0 l/m 0,0 km/h W-NW 9,3 C 11,9 C 0,0 km/h
14.05.2017 06:00 12,8 C 84 % 1017,8 hPa 0,0 l/m 0,0 km/h W-NW 10,2 C 12,8 C 0,0 km/h
14.05.2017 07:00 15,4 C 84 % 1018,6 hPa 0,0 l/m 0,0 km/h NW 12,7 C 15,4 C 0,0 km/h
14.05.2017 08:00 22,3 C 67 % 1018,8 hPa 0,0 l/m 0,0 km/h W-SW 15,9 C 22,3 C 0,0 km/h
14.05.2017 09:00 24,4 C 52 % 1019,3 hPa 0,0 l/m 0,0 km/h NW 13,9 C 24,4 C 0,0 km/h
14.05.2017 10:00 24,7 C 51 % 1019,7 hPa 0,0 l/m 0,0 km/h W 13,9 C 24,7 C 0,0 km/h
14.05.2017 11:00 24,4 C 49 % 1019,7 hPa 0,0 l/m 1,9 km/h S 13,0 C 24,4 C 1,1 km/h
14.05.2017 12:00 24,8 C 49 % 1019,8 hPa 0,0 l/m 0,6 km/h W-SW 13,3 C 24,8 C 0,4 km/h
14.05.2017 13:00 17,2 C 72 % 1021,0 hPa 0,0 l/m 6,5 km/h S-SO 12,1 C 17,2 C 3,6 km/h
14.05.2017 14:00 22,9 C 60 % 1020,8 hPa 0,0 l/m 0,0 km/h W-NW 14,7 C 22,9 C 0,0 km/h
14.05.2017 15:00 23,3 C 51 % 1020,5 hPa 0,0 l/m 0,0 km/h W-NW 12,6 C 23,3 C 0,0 km/h
14.05.2017 16:00 24,6 C 46 % 1020,3 hPa 0,0 l/m 0,0 km/h W 12,2 C 24,6 C 0,0 km/h
14.05.2017 17:00 15,0 C 72 % 1021,4 hPa 0,5 l/m 0,0 km/h O-SO 10,0 C 15,0 C 0,0 km/h
14.05.2017 18:00 21,2 C 68 % 1021,6 hPa 1,6 l/m 0,0 km/h O-SO 15,1 C 21,2 C 0,0 km/h
14.05.2017 19:00 15,7 C 78 % 1022,1 hPa 0,0 l/m 0,0 km/h O-SO 11,9 C 15,7 C 0,0 km/h
14.05.2017 20:00 14,2 C 83 % 1022,3 hPa 0,0 l/m 3,2 km/h O-SO 11,4 C 14,2 C 1,8 km/h
14.05.2017 21:00 12,6 C 84 % 1023,2 hPa 0,0 l/m 0,0 km/h O-SO 10,0 C 12,6 C 0,0 km/h
14.05.2017 22:00 11,0 C 84 % 1023,6 hPa 0,0 l/m 0,0 km/h S-SO 8,4 C 11,0 C 0,0 km/h
14.05.2017 23:00 12,0 C 82 % 1024,1 hPa 2,1 l/m 7,8 km/h O 9,0 C 11,1 C 4,3 km/h
Min-Datum _ 10.05.17 10.05.17 11.05.17 - 08.05.17 - 10.05.17 10.05.17 08.05.17
_ Min-Zeit 05:56 17:56 19:56 - 00:56 - 05:56 05:56 00:56
Minimum _ 1,9 C 21 % 995,4 hPa - 0,0 km/h - -0,2 C 1,9 C 0,0 km/h
Max-Datum _ 10.05.17 08.05.17 14.05.17 08.05.17 13.05.17 - 14.05.17 10.05.17 13.05.17
_ Max-Zeit 17:56 16:56 23:56 00:56 10:56 - 08:56 17:56 10:56
Maximum _ 33,1 C 86 % 1024,1 hPa 3,6 l/m 25,9 km/h
W-SW
- 15,9 C 33,1 C 14,4 km/h
W-SW
Durchschnitt _ 14,9 C 70 % 1009,6 hPa #8,8 l/m 1,4 km/h W 8,8 C 14,7 C 0,8 km/h
www.sexauwetter.de